sensor_id;sensor_type;location;lat;lon;timestamp;pressure;altitude;pressure_sealevel;temperature;humidity
3150;BME280;32503;47.748;8.960;2024-03-02T00:01:21;95802.56;;;7.33;73.34
3150;BME280;32503;47.748;8.960;2024-03-02T00:03:48;95803.97;;;7.27;74.04
3150;BME280;32503;47.748;8.960;2024-03-02T00:06:16;95808.13;;;7.20;74.76
3150;BME280;32503;47.748;8.960;2024-03-02T00:08:46;95811.22;;;7.22;74.65
3150;BME280;32503;47.748;8.960;2024-03-02T00:11:13;95797.66;;;7.15;74.90
3150;BME280;32503;47.748;8.960;2024-03-02T00:13:43;95811.63;;;7.25;74.32
3150;BME280;32503;47.748;8.960;2024-03-02T00:16:10;95810.88;;;7.24;75.00
3150;BME280;32503;47.748;8.960;2024-03-02T00:18:37;95821.69;;;7.28;74.66
3150;BME280;32503;47.748;8.960;2024-03-02T00:21:06;95821.97;;;7.22;74.93
3150;BME280;32503;47.748;8.960;2024-03-02T00:23:35;95820.84;;;7.24;74.98
3150;BME280;32503;47.748;8.960;2024-03-02T00:26:03;95814.66;;;7.23;75.29
3150;BME280;32503;47.748;8.960;2024-03-02T00:28:33;95819.28;;;7.22;75.07
3150;BME280;32503;47.748;8.960;2024-03-02T00:31:04;95808.06;;;7.17;75.55
3150;BME280;32503;47.748;8.960;2024-03-02T00:33:33;95825.47;;;7.27;75.48
3150;BME280;32503;47.748;8.960;2024-03-02T00:36:02;95810.16;;;7.27;75.60
3150;BME280;32503;47.748;8.960;2024-03-02T00:38:30;95816.72;;;7.30;75.35
3150;BME280;32503;47.748;8.960;2024-03-02T00:40:59;95810.28;;;7.34;75.04
3150;BME280;32503;47.748;8.960;2024-03-02T00:43:42;95782.22;;;7.12;74.69
3150;BME280;32503;47.748;8.960;2024-03-02T00:46:13;95822.09;;;7.30;74.57
3150;BME280;32503;47.748;8.960;2024-03-02T00:48:48;95818.69;;;7.33;75.24
3150;BME280;32503;47.748;8.960;2024-03-02T00:51:18;95814.56;;;7.39;74.73
3150;BME280;32503;47.748;8.960;2024-03-02T00:53:45;95812.72;;;7.43;74.44
3150;BME280;32503;47.748;8.960;2024-03-02T00:56:12;95815.34;;;7.39;74.55
3150;BME280;32503;47.748;8.960;2024-03-02T00:58:40;95796.78;;;7.31;74.59
3150;BME280;32503;47.748;8.960;2024-03-02T01:01:07;95821.16;;;7.42;74.91
3150;BME280;32503;47.748;8.960;2024-03-02T01:03:36;95827.22;;;7.38;74.61
3150;BME280;32503;47.748;8.960;2024-03-02T01:06:04;95830.97;;;7.34;75.54
3150;BME280;32503;47.748;8.960;2024-03-02T01:08:33;95821.78;;;7.35;74.89
3150;BME280;32503;47.748;8.960;2024-03-02T01:11:00;95823.78;;;7.38;75.34
3150;BME280;32503;47.748;8.960;2024-03-02T01:13:27;95829.56;;;7.40;74.86
3150;BME280;32503;47.748;8.960;2024-03-02T01:15:55;95826.53;;;7.42;75.39
3150;BME280;32503;47.748;8.960;2024-03-02T01:18:23;95842.72;;;7.45;75.07
3150;BME280;32503;47.748;8.960;2024-03-02T01:20:52;95845.81;;;7.47;75.16
3150;BME280;32503;47.748;8.960;2024-03-02T01:23:21;95831.97;;;7.45;75.42
3150;BME280;32503;47.748;8.960;2024-03-02T01:25:49;95825.06;;;7.48;74.84
3150;BME280;32503;47.748;8.960;2024-03-02T01:28:16;95838.16;;;7.49;75.20
3150;BME280;32503;47.748;8.960;2024-03-02T01:30:43;95830.44;;;7.48;75.02
3150;BME280;32503;47.748;8.960;2024-03-02T01:33:11;95836.47;;;7.41;75.42
3150;BME280;32503;47.748;8.960;2024-03-02T01:35:38;95839.03;;;7.34;75.36
3150;BME280;32503;47.748;8.960;2024-03-02T01:38:06;95837.09;;;7.31;76.24
3150;BME280;32503;47.748;8.960;2024-03-02T01:40:34;95835.47;;;7.26;76.95
3150;BME280;32503;47.748;8.960;2024-03-02T01:43:01;95837.81;;;7.28;76.46
3150;BME280;32503;47.748;8.960;2024-03-02T01:45:28;95841.31;;;7.32;76.24
3150;BME280;32503;47.748;8.960;2024-03-02T01:47:55;95829.38;;;7.29;75.98
3150;BME280;32503;47.748;8.960;2024-03-02T01:50:27;95830.97;;;7.34;76.64
3150;BME280;32503;47.748;8.960;2024-03-02T01:52:55;95831.34;;;7.32;76.50
3150;BME280;32503;47.748;8.960;2024-03-02T01:55:24;95840.50;;;7.28;76.12
3150;BME280;32503;47.748;8.960;2024-03-02T01:57:51;95842.75;;;7.26;76.71
3150;BME280;32503;47.748;8.960;2024-03-02T02:00:20;95840.91;;;7.30;76.33
3150;BME280;32503;47.748;8.960;2024-03-02T02:02:48;95831.53;;;7.20;76.68
3150;BME280;32503;47.748;8.960;2024-03-02T02:05:15;95832.53;;;7.12;76.84
3150;BME280;32503;47.748;8.960;2024-03-02T02:07:42;95834.88;;;7.13;76.42
3150;BME280;32503;47.748;8.960;2024-03-02T02:10:10;95825.66;;;7.14;76.61
3150;BME280;32503;47.748;8.960;2024-03-02T02:12:39;95826.91;;;6.97;76.85
3150;BME280;32503;47.748;8.960;2024-03-02T02:15:23;95819.34;;;6.83;76.71
3150;BME280;32503;47.748;8.960;2024-03-02T02:17:50;95811.22;;;6.80;76.66
3150;BME280;32503;47.748;8.960;2024-03-02T02:20:17;95818.06;;;6.77;77.46
3150;BME280;32503;47.748;8.960;2024-03-02T02:22:59;95815.97;;;6.67;78.14
3150;BME280;32503;47.748;8.960;2024-03-02T02:25:27;95816.66;;;6.64;77.59
3150;BME280;32503;47.748;8.960;2024-03-02T02:27:55;95816.03;;;6.71;77.61
3150;BME280;32503;47.748;8.960;2024-03-02T02:30:25;95831.06;;;6.75;77.04
3150;BME280;32503;47.748;8.960;2024-03-02T02:32:52;95829.59;;;6.78;77.49
3150;BME280;32503;47.748;8.960;2024-03-02T02:35:19;95833.53;;;6.84;77.81
3150;BME280;32503;47.748;8.960;2024-03-02T02:37:47;95830.16;;;6.87;77.27
3150;BME280;32503;47.748;8.960;2024-03-02T02:40:17;95828.03;;;6.96;77.07
3150;BME280;32503;47.748;8.960;2024-03-02T02:42:45;95823.00;;;6.95;76.78
3150;BME280;32503;47.748;8.960;2024-03-02T02:45:12;95818.84;;;6.97;77.02
3150;BME280;32503;47.748;8.960;2024-03-02T02:47:40;95816.50;;;6.96;77.02
3150;BME280;32503;47.748;8.960;2024-03-02T02:50:08;95821.88;;;6.96;76.98
3150;BME280;32503;47.748;8.960;2024-03-02T02:52:36;95815.00;;;6.98;76.82
3150;BME280;32503;47.748;8.960;2024-03-02T02:55:07;95814.22;;;6.98;77.45
3150;BME280;32503;47.748;8.960;2024-03-02T02:57:36;95816.63;;;7.03;77.23
3150;BME280;32503;47.748;8.960;2024-03-02T03:00:07;95818.16;;;7.04;76.07
3150;BME280;32503;47.748;8.960;2024-03-02T03:02:37;95819.03;;;7.08;76.62
3150;BME280;32503;47.748;8.960;2024-03-02T03:05:06;95823.19;;;7.06;75.88
3150;BME280;32503;47.748;8.960;2024-03-02T03:07:33;95819.75;;;7.05;75.82
3150;BME280;32503;47.748;8.960;2024-03-02T03:10:00;95816.97;;;7.01;76.38
3150;BME280;32503;47.748;8.960;2024-03-02T03:12:29;95818.09;;;7.00;75.92
3150;BME280;32503;47.748;8.960;2024-03-02T03:14:58;95814.66;;;7.00;76.03
3150;BME280;32503;47.748;8.960;2024-03-02T03:17:25;95808.50;;;6.99;76.06
3150;BME280;32503;47.748;8.960;2024-03-02T03:19:53;95815.81;;;6.99;76.35
3150;BME280;32503;47.748;8.960;2024-03-02T03:22:20;95813.53;;;7.01;75.83
3150;BME280;32503;47.748;8.960;2024-03-02T03:24:47;95813.13;;;6.99;75.99
3150;BME280;32503;47.748;8.960;2024-03-02T03:27:14;95811.13;;;6.96;76.40
3150;BME280;32503;47.748;8.960;2024-03-02T03:29:41;95799.63;;;6.95;75.79
3150;BME280;32503;47.748;8.960;2024-03-02T03:32:09;95795.06;;;6.99;76.23
3150;BME280;32503;47.748;8.960;2024-03-02T03:34:37;95794.94;;;6.92;76.13
3150;BME280;32503;47.748;8.960;2024-03-02T03:37:04;95812.66;;;6.97;76.22
3150;BME280;32503;47.748;8.960;2024-03-02T03:39:31;95807.28;;;6.97;75.44
3150;BME280;32503;47.748;8.960;2024-03-02T03:41:58;95812.66;;;6.97;75.59
3150;BME280;32503;47.748;8.960;2024-03-02T03:44:25;95813.94;;;7.03;76.10
3150;BME280;32503;47.748;8.960;2024-03-02T03:46:52;95816.56;;;6.99;75.80
3150;BME280;32503;47.748;8.960;2024-03-02T03:49:20;95813.47;;;6.97;76.14
3150;BME280;32503;47.748;8.960;2024-03-02T03:51:47;95819.59;;;6.98;76.50
3150;BME280;32503;47.748;8.960;2024-03-02T03:54:15;95819.59;;;6.98;76.54
3150;BME280;32503;47.748;8.960;2024-03-02T03:56:42;95814.81;;;6.88;76.96
3150;BME280;32503;47.748;8.960;2024-03-02T03:59:09;95817.34;;;6.80;77.54
3150;BME280;32503;47.748;8.960;2024-03-02T04:01:36;95815.38;;;6.77;77.30
3150;BME280;32503;47.748;8.960;2024-03-02T04:04:04;95821.59;;;6.81;77.08
3150;BME280;32503;47.748;8.960;2024-03-02T04:06:32;95819.75;;;6.86;77.89
3150;BME280;32503;47.748;8.960;2024-03-02T04:08:59;95811.78;;;6.89;77.73
3150;BME280;32503;47.748;8.960;2024-03-02T04:11:26;95817.28;;;6.96;77.89
3150;BME280;32503;47.748;8.960;2024-03-02T04:13:53;95828.78;;;6.97;77.60
3150;BME280;32503;47.748;8.960;2024-03-02T04:16:20;95838.00;;;6.96;77.51
3150;BME280;32503;47.748;8.960;2024-03-02T04:18:47;95832.97;;;6.94;77.39
3150;BME280;32503;47.748;8.960;2024-03-02T04:21:14;95838.69;;;6.93;77.58
3150;BME280;32503;47.748;8.960;2024-03-02T04:23:43;95839.06;;;6.91;77.27
3150;BME280;32503;47.748;8.960;2024-03-02T04:26:10;95834.91;;;6.94;78.02
3150;BME280;32503;47.748;8.960;2024-03-02T04:28:37;95833.31;;;6.93;77.02
3150;BME280;32503;47.748;8.960;2024-03-02T04:31:04;95835.31;;;6.96;76.97
3150;BME280;32503;47.748;8.960;2024-03-02T04:33:31;95838.41;;;6.98;77.43
3150;BME280;32503;47.748;8.960;2024-03-02T04:35:58;95825.69;;;6.95;76.92
3150;BME280;32503;47.748;8.960;2024-03-02T04:38:25;95834.38;;;6.88;76.86
3150;BME280;32503;47.748;8.960;2024-03-02T04:40:53;95835.47;;;6.83;76.94
3150;BME280;32503;47.748;8.960;2024-03-02T04:43:20;95835.47;;;6.83;77.24
3150;BME280;32503;47.748;8.960;2024-03-02T04:45:47;95824.72;;;6.83;76.62
3150;BME280;32503;47.748;8.960;2024-03-02T04:48:14;95829.66;;;6.81;77.48
3150;BME280;32503;47.748;8.960;2024-03-02T04:50:41;95832.34;;;6.81;77.19
3150;BME280;32503;47.748;8.960;2024-03-02T04:53:08;95827.34;;;6.80;77.04
3150;BME280;32503;47.748;8.960;2024-03-02T04:55:35;95827.69;;;6.78;77.19
3150;BME280;32503;47.748;8.960;2024-03-02T04:58:30;95829.16;;;6.76;77.29
3150;BME280;32503;47.748;8.960;2024-03-02T05:00:57;95827.63;;;6.75;76.83
3150;BME280;32503;47.748;8.960;2024-03-02T05:03:24;95827.69;;;6.78;76.78
3150;BME280;32503;47.748;8.960;2024-03-02T05:05:51;95825.41;;;6.80;76.85
3150;BME280;32503;47.748;8.960;2024-03-02T05:08:18;95825.78;;;6.79;77.58
3150;BME280;32503;47.748;8.960;2024-03-02T05:10:45;95820.81;;;6.81;77.74
3150;BME280;32503;47.748;8.960;2024-03-02T05:13:12;95836.66;;;6.86;76.88
3150;BME280;32503;47.748;8.960;2024-03-02T05:15:40;95837.88;;;6.89;76.82
3150;BME280;32503;47.748;8.960;2024-03-02T05:18:07;95842.88;;;6.90;77.46
3150;BME280;32503;47.748;8.960;2024-03-02T05:20:34;95838.28;;;6.91;77.47
3150;BME280;32503;47.748;8.960;2024-03-02T05:23:01;95846.34;;;6.91;76.77
3150;BME280;32503;47.748;8.960;2024-03-02T05:25:28;95849.09;;;6.94;76.39
3150;BME280;32503;47.748;8.960;2024-03-02T05:27:55;95853.34;;;6.95;77.06
3150;BME280;32503;47.748;8.960;2024-03-02T05:30:22;95854.13;;;6.96;77.19
3150;BME280;32503;47.748;8.960;2024-03-02T05:32:53;95848.41;;;6.97;76.75
3150;BME280;32503;47.748;8.960;2024-03-02T05:35:20;95854.81;;;6.93;76.42
3150;BME280;32503;47.748;8.960;2024-03-02T05:37:47;95852.91;;;6.93;77.30
3150;BME280;32503;47.748;8.960;2024-03-02T05:40:14;95846.34;;;6.91;77.49
3150;BME280;32503;47.748;8.960;2024-03-02T05:42:41;95847.53;;;6.93;77.49
3150;BME280;32503;47.748;8.960;2024-03-02T05:45:08;95852.19;;;6.96;76.55
3150;BME280;32503;47.748;8.960;2024-03-02T05:47:36;95841.88;;;6.98;77.05
3150;BME280;32503;47.748;8.960;2024-03-02T05:50:06;95846.47;;;6.98;76.59
3150;BME280;32503;47.748;8.960;2024-03-02T05:52:33;95852.97;;;6.97;76.65
3150;BME280;32503;47.748;8.960;2024-03-02T05:55:00;95848.81;;;6.99;77.41
3150;BME280;32503;47.748;8.960;2024-03-02T05:57:28;95852.25;;;7.00;76.58
3150;BME280;32503;47.748;8.960;2024-03-02T06:00:11;95843.38;;;6.96;77.18
3150;BME280;32503;47.748;8.960;2024-03-02T06:02:39;95857.63;;;7.00;77.46
3150;BME280;32503;47.748;8.960;2024-03-02T06:05:08;95867.69;;;7.03;77.39
3150;BME280;32503;47.748;8.960;2024-03-02T06:07:35;95866.63;;;7.08;77.75
3150;BME280;32503;47.748;8.960;2024-03-02T06:10:03;95865.84;;;7.07;77.35
3150;BME280;32503;47.748;8.960;2024-03-02T06:12:33;95865.50;;;7.09;77.43
3150;BME280;32503;47.748;8.960;2024-03-02T06:15:00;95864.66;;;7.05;77.16
3150;BME280;32503;47.748;8.960;2024-03-02T06:17:27;95867.34;;;7.05;77.49
3150;BME280;32503;47.748;8.960;2024-03-02T06:19:54;95866.63;;;7.08;77.56
3150;BME280;32503;47.748;8.960;2024-03-02T06:22:22;95868.94;;;7.09;78.14
3150;BME280;32503;47.748;8.960;2024-03-02T06:24:51;95870.16;;;7.12;77.40
3150;BME280;32503;47.748;8.960;2024-03-02T06:27:18;95864.00;;;7.11;77.94
3150;BME280;32503;47.748;8.960;2024-03-02T06:29:45;95864.50;;;7.17;78.20
3150;BME280;32503;47.748;8.960;2024-03-02T06:32:12;95868.16;;;7.09;77.52
3150;BME280;32503;47.748;8.960;2024-03-02T06:34:39;95880.13;;;7.11;77.96
3150;BME280;32503;47.748;8.960;2024-03-02T06:37:06;95871.28;;;7.11;77.57
3150;BME280;32503;47.748;8.960;2024-03-02T06:39:34;95882.81;;;7.11;77.92
3150;BME280;32503;47.748;8.960;2024-03-02T06:42:02;95876.59;;;7.07;77.96
3150;BME280;32503;47.748;8.960;2024-03-02T06:44:29;95882.97;;;6.99;77.38
3150;BME280;32503;47.748;8.960;2024-03-02T06:46:56;95876.38;;;6.96;77.81
3150;BME280;32503;47.748;8.960;2024-03-02T06:49:23;95871.72;;;6.93;77.07
3150;BME280;32503;47.748;8.960;2024-03-02T06:51:50;95881.97;;;6.88;77.67
3150;BME280;32503;47.748;8.960;2024-03-02T06:54:17;95876.19;;;6.86;77.56
3150;BME280;32503;47.748;8.960;2024-03-02T06:56:45;95880.72;;;6.81;78.36
3150;BME280;32503;47.748;8.960;2024-03-02T06:59:12;95874.59;;;6.84;78.07
3150;BME280;32503;47.748;8.960;2024-03-02T07:01:39;95873.28;;;6.75;78.19
3150;BME280;32503;47.748;8.960;2024-03-02T07:04:07;95877.88;;;6.74;77.86
3150;BME280;32503;47.748;8.960;2024-03-02T07:06:34;95877.75;;;6.67;78.25
3150;BME280;32503;47.748;8.960;2024-03-02T07:09:01;95880.50;;;6.71;77.55
3150;BME280;32503;47.748;8.960;2024-03-02T07:11:28;95878.78;;;6.62;77.62
3150;BME280;32503;47.748;8.960;2024-03-02T07:13:57;95881.13;;;6.64;77.70
3150;BME280;32503;47.748;8.960;2024-03-02T07:16:24;95880.31;;;6.63;78.30
3150;BME280;32503;47.748;8.960;2024-03-02T07:18:59;95884.16;;;6.62;77.80
3150;BME280;32503;47.748;8.960;2024-03-02T07:21:27;95873.28;;;6.55;77.97
3150;BME280;32503;47.748;8.960;2024-03-02T07:23:54;95867.91;;;6.55;77.79
3150;BME280;32503;47.748;8.960;2024-03-02T07:26:21;95868.38;;;6.61;78.51
3150;BME280;32503;47.748;8.960;2024-03-02T07:28:49;95869.97;;;6.62;77.99
3150;BME280;32503;47.748;8.960;2024-03-02T07:31:17;95867.28;;;6.62;78.04
3150;BME280;32503;47.748;8.960;2024-03-02T07:33:45;95868.53;;;6.68;78.43
3150;BME280;32503;47.748;8.960;2024-03-02T07:36:12;95857.50;;;6.73;78.01
3150;BME280;32503;47.748;8.960;2024-03-02T07:38:40;95859.22;;;6.81;78.37
3150;BME280;32503;47.748;8.960;2024-03-02T07:41:08;95858.81;;;6.79;78.46
3150;BME280;32503;47.748;8.960;2024-03-02T07:43:37;95870.81;;;6.86;77.77
3150;BME280;32503;47.748;8.960;2024-03-02T07:46:04;95873.91;;;6.88;78.46
3150;BME280;32503;47.748;8.960;2024-03-02T07:48:33;95870.53;;;6.91;77.71
3150;BME280;32503;47.748;8.960;2024-03-02T07:51:00;95873.69;;;6.96;77.64
3150;BME280;32503;47.748;8.960;2024-03-02T07:53:28;95867.97;;;6.98;78.63
3150;BME280;32503;47.748;8.960;2024-03-02T07:55:55;95869.31;;;7.08;77.71
3150;BME280;32503;47.748;8.960;2024-03-02T07:58:27;95870.56;;;7.14;77.79
3150;BME280;32503;47.748;8.960;2024-03-02T08:00:54;95868.00;;;7.21;77.61
3150;BME280;32503;47.748;8.960;2024-03-02T08:03:22;95867.78;;;7.30;77.48
3150;BME280;32503;47.748;8.960;2024-03-02T08:05:50;95856.63;;;7.28;77.08
3150;BME280;32503;47.748;8.960;2024-03-02T08:10:45;95859.03;;;7.33;77.15
3150;BME280;32503;47.748;8.960;2024-03-02T08:13:12;95848.00;;;7.18;77.11
3150;BME280;32503;47.748;8.960;2024-03-02T08:15:39;95853.16;;;7.27;77.18
3150;BME280;32503;47.748;8.960;2024-03-02T08:18:07;95860.22;;;7.35;77.57
3150;BME280;32503;47.748;8.960;2024-03-02T08:20:34;95861.84;;;7.40;77.05
3150;BME280;32503;47.748;8.960;2024-03-02T08:23:03;95860.75;;;7.45;76.94
3150;BME280;32503;47.748;8.960;2024-03-02T08:25:30;95858.13;;;7.48;76.65
3150;BME280;32503;47.748;8.960;2024-03-02T08:27:58;95860.09;;;7.51;76.87
3150;BME280;32503;47.748;8.960;2024-03-02T08:30:25;95850.50;;;7.50;77.22
3150;BME280;32503;47.748;8.960;2024-03-02T08:32:52;95864.53;;;7.63;76.73
3150;BME280;32503;47.748;8.960;2024-03-02T08:35:19;95854.59;;;7.67;76.67
3150;BME280;32503;47.748;8.960;2024-03-02T08:37:48;95867.56;;;7.62;76.19
3150;BME280;32503;47.748;8.960;2024-03-02T08:40:16;95859.84;;;7.60;76.23
3150;BME280;32503;47.748;8.960;2024-03-02T08:42:44;95851.13;;;7.67;75.78
3150;BME280;32503;47.748;8.960;2024-03-02T08:45:11;95843.41;;;7.65;76.06
3150;BME280;32503;47.748;8.960;2024-03-02T08:47:38;95843.78;;;7.64;75.61
3150;BME280;32503;47.748;8.960;2024-03-02T08:50:07;95843.06;;;7.67;75.86
3150;BME280;32503;47.748;8.960;2024-03-02T08:52:34;95833.88;;;7.68;76.09
3150;BME280;32503;47.748;8.960;2024-03-02T08:55:02;95847.19;;;7.84;76.15
3150;BME280;32503;47.748;8.960;2024-03-02T08:57:31;95836.59;;;7.94;75.82
3150;BME280;32503;47.748;8.960;2024-03-02T08:59:59;95826.63;;;7.98;76.04
3150;BME280;32503;47.748;8.960;2024-03-02T09:02:26;95832.19;;;8.09;75.74
3150;BME280;32503;47.748;8.960;2024-03-02T09:04:53;95831.16;;;8.18;75.23
3150;BME280;32503;47.748;8.960;2024-03-02T09:07:20;95831.66;;;8.27;75.47
3150;BME280;32503;47.748;8.960;2024-03-02T09:09:47;95831.69;;;8.30;74.60
3150;BME280;32503;47.748;8.960;2024-03-02T09:12:14;95827.13;;;8.34;74.55
3150;BME280;32503;47.748;8.960;2024-03-02T09:14:43;95829.50;;;8.40;74.66
3150;BME280;32503;47.748;8.960;2024-03-02T09:17:10;95828.81;;;8.43;74.27
3150;BME280;32503;47.748;8.960;2024-03-02T09:19:38;95825.00;;;8.44;73.81
3150;BME280;32503;47.748;8.960;2024-03-02T09:22:05;95822.69;;;8.46;73.81
3150;BME280;32503;47.748;8.960;2024-03-02T09:24:32;95803.31;;;8.37;73.98
3150;BME280;32503;47.748;8.960;2024-03-02T09:26:59;95813.16;;;8.52;73.61
3150;BME280;32503;47.748;8.960;2024-03-02T09:29:26;95818.56;;;8.56;73.33
3150;BME280;32503;47.748;8.960;2024-03-02T09:31:55;95811.22;;;8.49;72.97
3150;BME280;32503;47.748;8.960;2024-03-02T09:34:22;95805.06;;;8.52;73.23
3150;BME280;32503;47.748;8.960;2024-03-02T09:36:51;95807.84;;;8.59;73.22
3150;BME280;32503;47.748;8.960;2024-03-02T09:39:18;95803.69;;;8.65;73.12
3150;BME280;32503;47.748;8.960;2024-03-02T09:41:45;95799.16;;;8.73;73.52
3150;BME280;32503;47.748;8.960;2024-03-02T09:44:13;95799.22;;;8.80;72.86
3150;BME280;32503;47.748;8.960;2024-03-02T09:46:41;95792.03;;;8.88;72.35
3150;BME280;32503;47.748;8.960;2024-03-02T09:49:11;95794.44;;;8.97;72.91
3150;BME280;32503;47.748;8.960;2024-03-02T09:51:38;95791.75;;;9.00;72.22
3150;BME280;32503;47.748;8.960;2024-03-02T09:54:07;95775.50;;;8.89;72.38
3150;BME280;32503;47.748;8.960;2024-03-02T09:56:34;95800.63;;;9.01;72.45
3150;BME280;32503;47.748;8.960;2024-03-02T09:59:01;95804.09;;;9.01;71.96
3150;BME280;32503;47.748;8.960;2024-03-02T10:01:28;95787.94;;;9.05;71.93
3150;BME280;32503;47.748;8.960;2024-03-02T10:03:58;95786.84;;;9.09;71.96
3150;BME280;32503;47.748;8.960;2024-03-02T10:06:28;95767.56;;;9.07;71.54
3150;BME280;32503;47.748;8.960;2024-03-02T10:08:56;95782.31;;;9.21;71.19
3150;BME280;32503;47.748;8.960;2024-03-02T10:11:30;95778.09;;;9.20;70.64
3150;BME280;32503;47.748;8.960;2024-03-02T10:14:06;95792.09;;;8.95;71.04
3150;BME280;32503;47.748;8.960;2024-03-02T10:16:37;95787.97;;;9.08;70.36
3150;BME280;32503;47.748;8.960;2024-03-02T10:19:16;95787.25;;;9.11;70.85
3150;BME280;32503;47.748;8.960;2024-03-02T10:21:46;95761.78;;;9.05;71.14
3150;BME280;32503;47.748;8.960;2024-03-02T10:24:13;95753.19;;;8.96;70.51
3150;BME280;32503;47.748;8.960;2024-03-02T10:26:40;95775.75;;;9.18;70.20
3150;BME280;32503;47.748;8.960;2024-03-02T10:29:08;95775.41;;;9.20;71.05
3150;BME280;32503;47.748;8.960;2024-03-02T10:31:37;95752.25;;;9.19;70.57
3150;BME280;32503;47.748;8.960;2024-03-02T10:34:05;95773.66;;;9.45;70.77
3150;BME280;32503;47.748;8.960;2024-03-02T10:36:33;95755.91;;;9.37;70.33
3150;BME280;32503;47.748;8.960;2024-03-02T10:39:04;95769.13;;;9.53;70.61
3150;BME280;32503;47.748;8.960;2024-03-02T10:41:34;95771.47;;;9.58;70.20
3150;BME280;32503;47.748;8.960;2024-03-02T10:44:03;95767.69;;;9.70;69.84
3150;BME280;32503;47.748;8.960;2024-03-02T10:46:32;95761.63;;;9.84;69.36
3150;BME280;32503;47.748;8.960;2024-03-02T10:49:02;95759.31;;;9.86;68.34
3150;BME280;32503;47.748;8.960;2024-03-02T10:51:31;95755.59;;;10.09;68.84
3150;BME280;32503;47.748;8.960;2024-03-02T10:53:59;95729.00;;;10.18;67.92
3150;BME280;32503;47.748;8.960;2024-03-02T10:56:31;95738.81;;;10.44;67.25
3150;BME280;32503;47.748;8.960;2024-03-02T10:59:03;95743.91;;;10.67;66.64
3150;BME280;32503;47.748;8.960;2024-03-02T11:01:32;95737.72;;;10.67;65.82
3150;BME280;32503;47.748;8.960;2024-03-02T11:04:02;95729.69;;;10.95;64.71
3150;BME280;32503;47.748;8.960;2024-03-02T11:06:31;95722.75;;;11.02;64.12
3150;BME280;32503;47.748;8.960;2024-03-02T11:09:05;95720.06;;;11.16;64.40
3150;BME280;32503;47.748;8.960;2024-03-02T11:11:40;95715.03;;;11.43;63.47
3150;BME280;32503;47.748;8.960;2024-03-02T11:14:14;95714.97;;;11.97;63.15
3150;BME280;32503;47.748;8.960;2024-03-02T11:16:44;95719.84;;;12.42;62.28
3150;BME280;32503;47.748;8.960;2024-03-02T11:19:13;95714.03;;;12.43;61.28
3150;BME280;32503;47.748;8.960;2024-03-02T11:21:42;95698.59;;;12.33;60.16
3150;BME280;32503;47.748;8.960;2024-03-02T11:24:29;95683.78;;;12.56;60.35
3150;BME280;32503;47.748;8.960;2024-03-02T11:27:01;95692.13;;;12.90;59.51
3150;BME280;32503;47.748;8.960;2024-03-02T11:29:47;95684.25;;;13.06;59.17
3150;BME280;32503;47.748;8.960;2024-03-02T11:32:21;95662.53;;;13.06;59.18
3150;BME280;32503;47.748;8.960;2024-03-02T11:34:50;95670.75;;;13.48;58.97
3150;BME280;32503;47.748;8.960;2024-03-02T11:37:19;95666.91;;;13.83;58.35
3150;BME280;32503;47.748;8.960;2024-03-02T11:39:49;95658.03;;;14.14;57.19
3150;BME280;32503;47.748;8.960;2024-03-02T11:42:18;95653.81;;;14.44;55.94
3150;BME280;32503;47.748;8.960;2024-03-02T11:44:46;95657.72;;;14.70;55.43
3150;BME280;32503;47.748;8.960;2024-03-02T11:47:15;95654.75;;;14.88;54.16
3150;BME280;32503;47.748;8.960;2024-03-02T11:49:45;95639.38;;;15.01;53.61
3150;BME280;32503;47.748;8.960;2024-03-02T11:52:13;95641.69;;;14.79;52.53
3150;BME280;32503;47.748;8.960;2024-03-02T11:54:43;95638.16;;;14.78;53.40
3150;BME280;32503;47.748;8.960;2024-03-02T11:57:14;95631.69;;;14.96;54.13
3150;BME280;32503;47.748;8.960;2024-03-02T11:59:43;95625.19;;;15.13;54.11
3150;BME280;32503;47.748;8.960;2024-03-02T12:02:16;95611.69;;;15.30;53.80
3150;BME280;32503;47.748;8.960;2024-03-02T12:04:44;95596.59;;;15.49;53.33
3150;BME280;32503;47.748;8.960;2024-03-02T12:07:12;95604.72;;;15.72;53.16
3150;BME280;32503;47.748;8.960;2024-03-02T12:09:39;95595.88;;;15.88;53.03
3150;BME280;32503;47.748;8.960;2024-03-02T12:12:08;95597.53;;;16.02;52.27
3150;BME280;32503;47.748;8.960;2024-03-02T12:14:36;95578.41;;;16.06;52.70
3150;BME280;32503;47.748;8.960;2024-03-02T12:17:05;95585.91;;;16.18;52.20
3150;BME280;32503;47.748;8.960;2024-03-02T12:19:33;95582.28;;;16.25;51.94
3150;BME280;32503;47.748;8.960;2024-03-02T12:22:00;95577.28;;;16.40;51.91
3150;BME280;32503;47.748;8.960;2024-03-02T12:24:29;95576.47;;;16.59;50.97
3150;BME280;32503;47.748;8.960;2024-03-02T12:26:57;95574.66;;;16.69;50.00
3150;BME280;32503;47.748;8.960;2024-03-02T12:29:24;95564.47;;;16.73;50.26
3150;BME280;32503;47.748;8.960;2024-03-02T12:31:52;95557.19;;;16.83;49.93
3150;BME280;32503;47.748;8.960;2024-03-02T12:34:22;95555.88;;;16.91;49.74
3150;BME280;32503;47.748;8.960;2024-03-02T12:36:49;95555.69;;;16.98;48.97
3150;BME280;32503;47.748;8.960;2024-03-02T12:39:19;95550.53;;;17.17;48.43
3150;BME280;32503;47.748;8.960;2024-03-02T12:41:50;95539.16;;;17.35;46.99
3150;BME280;32503;47.748;8.960;2024-03-02T12:44:17;95536.25;;;17.42;45.99
3150;BME280;32503;47.748;8.960;2024-03-02T12:46:44;95527.25;;;17.41;46.12
3150;BME280;32503;47.748;8.960;2024-03-02T12:49:14;95526.97;;;17.52;46.50
3150;BME280;32503;47.748;8.960;2024-03-02T12:51:43;95532.69;;;17.58;45.73
3150;BME280;32503;47.748;8.960;2024-03-02T12:54:12;95518.50;;;17.63;46.01
3150;BME280;32503;47.748;8.960;2024-03-02T12:56:41;95505.28;;;17.74;45.56
3150;BME280;32503;47.748;8.960;2024-03-02T12:59:18;95515.31;;;17.94;44.97
3150;BME280;32503;47.748;8.960;2024-03-02T13:01:56;95504.47;;;18.03;44.63
3150;BME280;32503;47.748;8.960;2024-03-02T13:04:24;95512.25;;;17.92;43.87
3150;BME280;32503;47.748;8.960;2024-03-02T13:06:54;95505.66;;;17.89;44.31
3150;BME280;32503;47.748;8.960;2024-03-02T13:09:23;95500.44;;;17.95;44.39
3150;BME280;32503;47.748;8.960;2024-03-02T13:11:51;95492.25;;;18.08;44.44
3150;BME280;32503;47.748;8.960;2024-03-02T13:14:18;95487.53;;;18.08;44.35
3150;BME280;32503;47.748;8.960;2024-03-02T13:16:45;95483.50;;;18.13;44.14
3150;BME280;32503;47.748;8.960;2024-03-02T13:19:12;95478.69;;;18.17;43.24
3150;BME280;32503;47.748;8.960;2024-03-02T13:21:40;95482.94;;;18.31;43.61
3150;BME280;32503;47.748;8.960;2024-03-02T13:24:08;95478.78;;;18.39;43.40
3150;BME280;32503;47.748;8.960;2024-03-02T13:26:36;95470.78;;;18.45;43.16
3150;BME280;32503;47.748;8.960;2024-03-02T13:29:03;95453.75;;;18.41;42.49